sensor_id;sensor_type;location;lat;lon;timestamp;temperature;humidity
4279;DHT22;2153;47.744;10.580;2022-09-21T00:01:49;3.10;99.90
4279;DHT22;2153;47.744;10.580;2022-09-21T00:04:16;2.80;99.90
4279;DHT22;2153;47.744;10.580;2022-09-21T00:06:43;2.80;99.90
4279;DHT22;2153;47.744;10.580;2022-09-21T00:09:10;2.70;99.90
4279;DHT22;2153;47.744;10.580;2022-09-21T00:11:37;2.80;99.90
4279;DHT22;2153;47.744;10.580;2022-09-21T00:14:06;2.80;99.90
4279;DHT22;2153;47.744;10.580;2022-09-21T00:16:36;2.70;99.90
4279;DHT22;2153;47.744;10.580;2022-09-21T00:19:03;2.60;99.90
4279;DHT22;2153;47.744;10.580;2022-09-21T00:21:30;2.50;99.90
4279;DHT22;2153;47.744;10.580;2022-09-21T00:23:58;2.50;99.90
4279;DHT22;2153;47.744;10.580;2022-09-21T00:26:26;2.50;99.90
4279;DHT22;2153;47.744;10.580;2022-09-21T00:28:53;2.50;99.90
4279;DHT22;2153;47.744;10.580;2022-09-21T00:31:21;2.50;99.90
4279;DHT22;2153;47.744;10.580;2022-09-21T00:33:50;2.40;99.90
4279;DHT22;2153;47.744;10.580;2022-09-21T00:36:18;2.40;99.90
4279;DHT22;2153;47.744;10.580;2022-09-21T00:38:49;2.30;99.90
4279;DHT22;2153;47.744;10.580;2022-09-21T00:41:15;2.30;99.90
4279;DHT22;2153;47.744;10.580;2022-09-21T00:43:45;2.30;99.90
4279;DHT22;2153;47.744;10.580;2022-09-21T00:46:15;2.30;99.90
4279;DHT22;2153;47.744;10.580;2022-09-21T00:48:48;2.30;99.90
4279;DHT22;2153;47.744;10.580;2022-09-21T00:51:15;2.40;99.90
4279;DHT22;2153;47.744;10.580;2022-09-21T00:53:43;2.40;99.90
4279;DHT22;2153;47.744;10.580;2022-09-21T00:56:11;2.40;99.90
4279;DHT22;2153;47.744;10.580;2022-09-21T00:58:44;2.40;99.90
4279;DHT22;2153;47.744;10.580;2022-09-21T01:01:12;2.40;99.90
4279;DHT22;2153;47.744;10.580;2022-09-21T01:03:41;2.30;99.90
4279;DHT22;2153;47.744;10.580;2022-09-21T01:06:11;2.30;99.90
4279;DHT22;2153;47.744;10.580;2022-09-21T01:08:38;2.30;99.90
4279;DHT22;2153;47.744;10.580;2022-09-21T01:11:25;2.30;99.90
4279;DHT22;2153;47.744;10.580;2022-09-21T01:14:11;2.30;99.90
4279;DHT22;2153;47.744;10.580;2022-09-21T01:16:46;2.30;99.90
4279;DHT22;2153;47.744;10.580;2022-09-21T01:19:26;2.20;99.90
4279;DHT22;2153;47.744;10.580;2022-09-21T01:22:02;2.20;99.90
4279;DHT22;2153;47.744;10.580;2022-09-21T01:24:47;2.20;99.90
4279;DHT22;2153;47.744;10.580;2022-09-21T01:27:43;2.20;99.90
4279;DHT22;2153;47.744;10.580;2022-09-21T01:30:14;2.10;99.90
4279;DHT22;2153;47.744;10.580;2022-09-21T01:32:46;2.10;99.90
4279;DHT22;2153;47.744;10.580;2022-09-21T01:35:18;2.00;99.90
4279;DHT22;2153;47.744;10.580;2022-09-21T01:37:50;2.00;99.90
4279;DHT22;2153;47.744;10.580;2022-09-21T01:40:20;1.90;99.90
4279;DHT22;2153;47.744;10.580;2022-09-21T01:42:48;1.80;99.90
4279;DHT22;2153;47.744;10.580;2022-09-21T01:45:19;1.90;99.90
4279;DHT22;2153;47.744;10.580;2022-09-21T01:47:48;1.90;99.90
4279;DHT22;2153;47.744;10.580;2022-09-21T01:50:18;1.90;99.90
4279;DHT22;2153;47.744;10.580;2022-09-21T01:52:49;1.70;99.90
4279;DHT22;2153;47.744;10.580;2022-09-21T01:55:20;1.70;99.90
4279;DHT22;2153;47.744;10.580;2022-09-21T02:01:18;1.80;99.90
4279;DHT22;2153;47.744;10.580;2022-09-21T02:03:50;1.80;99.90
4279;DHT22;2153;47.744;10.580;2022-09-21T02:06:18;1.80;99.90
4279;DHT22;2153;47.744;10.580;2022-09-21T02:08:46;1.80;99.90
4279;DHT22;2153;47.744;10.580;2022-09-21T02:11:13;1.70;99.90
4279;DHT22;2153;47.744;10.580;2022-09-21T02:13:43;1.60;99.90
4279;DHT22;2153;47.744;10.580;2022-09-21T02:16:27;1.60;99.90
4279;DHT22;2153;47.744;10.580;2022-09-21T02:19:11;1.60;99.90
4279;DHT22;2153;47.744;10.580;2022-09-21T02:21:48;1.50;99.90
4279;DHT22;2153;47.744;10.580;2022-09-21T02:24:24;1.50;99.90
4279;DHT22;2153;47.744;10.580;2022-09-21T02:27:03;1.40;99.90
4279;DHT22;2153;47.744;10.580;2022-09-21T02:29:36;1.40;99.90
4279;DHT22;2153;47.744;10.580;2022-09-21T02:32:13;1.40;99.90
4279;DHT22;2153;47.744;10.580;2022-09-21T02:34:45;1.40;99.90
4279;DHT22;2153;47.744;10.580;2022-09-21T02:37:20;1.40;99.90
4279;DHT22;2153;47.744;10.580;2022-09-21T02:39:55;1.40;99.90
4279;DHT22;2153;47.744;10.580;2022-09-21T02:42:26;1.50;99.90
4279;DHT22;2153;47.744;10.580;2022-09-21T02:44:57;1.40;99.90
4279;DHT22;2153;47.744;10.580;2022-09-21T02:47:30;1.30;99.90
4279;DHT22;2153;47.744;10.580;2022-09-21T02:50:03;1.30;99.90
4279;DHT22;2153;47.744;10.580;2022-09-21T02:52:32;1.20;99.90
4279;DHT22;2153;47.744;10.580;2022-09-21T02:55:01;1.10;99.90
4279;DHT22;2153;47.744;10.580;2022-09-21T02:57:28;1.10;99.90
4279;DHT22;2153;47.744;10.580;2022-09-21T02:59:55;1.10;99.90
4279;DHT22;2153;47.744;10.580;2022-09-21T03:02:22;1.10;99.90
4279;DHT22;2153;47.744;10.580;2022-09-21T03:04:50;1.20;99.90
4279;DHT22;2153;47.744;10.580;2022-09-21T03:07:18;1.20;99.90
4279;DHT22;2153;47.744;10.580;2022-09-21T03:09:45;1.20;99.90
4279;DHT22;2153;47.744;10.580;2022-09-21T03:12:11;1.00;99.90
4279;DHT22;2153;47.744;10.580;2022-09-21T03:14:38;0.90;99.90
4279;DHT22;2153;47.744;10.580;2022-09-21T03:17:05;0.80;99.90
4279;DHT22;2153;47.744;10.580;2022-09-21T03:19:31;0.70;99.90
4279;DHT22;2153;47.744;10.580;2022-09-21T03:21:59;0.70;99.90
4279;DHT22;2153;47.744;10.580;2022-09-21T03:24:27;0.70;99.90
4279;DHT22;2153;47.744;10.580;2022-09-21T03:27:12;0.70;99.90
4279;DHT22;2153;47.744;10.580;2022-09-21T03:29:39;0.60;99.90
4279;DHT22;2153;47.744;10.580;2022-09-21T03:32:05;0.60;99.90
4279;DHT22;2153;47.744;10.580;2022-09-21T03:34:32;0.60;99.90
4279;DHT22;2153;47.744;10.580;2022-09-21T03:37:01;0.50;99.90
4279;DHT22;2153;47.744;10.580;2022-09-21T03:39:27;0.50;99.90
4279;DHT22;2153;47.744;10.580;2022-09-21T03:41:54;0.50;99.90
4279;DHT22;2153;47.744;10.580;2022-09-21T03:44:21;0.60;99.90
4279;DHT22;2153;47.744;10.580;2022-09-21T03:46:48;0.60;99.90
4279;DHT22;2153;47.744;10.580;2022-09-21T03:49:15;0.70;99.90
4279;DHT22;2153;47.744;10.580;2022-09-21T03:51:42;0.70;99.90
4279;DHT22;2153;47.744;10.580;2022-09-21T03:54:10;0.60;99.90
4279;DHT22;2153;47.744;10.580;2022-09-21T03:56:37;0.70;99.90
4279;DHT22;2153;47.744;10.580;2022-09-21T03:59:04;0.70;99.90
4279;DHT22;2153;47.744;10.580;2022-09-21T04:01:30;0.70;99.90
4279;DHT22;2153;47.744;10.580;2022-09-21T04:03:57;0.80;99.90
4279;DHT22;2153;47.744;10.580;2022-09-21T04:06:24;0.70;99.90
4279;DHT22;2153;47.744;10.580;2022-09-21T04:08:50;0.60;99.90
4279;DHT22;2153;47.744;10.580;2022-09-21T04:11:20;0.50;99.90
4279;DHT22;2153;47.744;10.580;2022-09-21T04:13:49;0.50;99.90
4279;DHT22;2153;47.744;10.580;2022-09-21T04:16:17;0.50;99.90
4279;DHT22;2153;47.744;10.580;2022-09-21T04:18:44;0.40;99.90
4279;DHT22;2153;47.744;10.580;2022-09-21T04:21:14;0.40;99.90
4279;DHT22;2153;47.744;10.580;2022-09-21T04:23:41;0.40;99.90
4279;DHT22;2153;47.744;10.580;2022-09-21T04:26:21;0.40;99.90
4279;DHT22;2153;47.744;10.580;2022-09-21T04:28:48;0.40;99.90
4279;DHT22;2153;47.744;10.580;2022-09-21T04:31:15;0.40;99.90
4279;DHT22;2153;47.744;10.580;2022-09-21T04:33:42;0.40;99.90
4279;DHT22;2153;47.744;10.580;2022-09-21T04:36:09;0.30;99.90
4279;DHT22;2153;47.744;10.580;2022-09-21T04:38:35;0.30;99.90
4279;DHT22;2153;47.744;10.580;2022-09-21T04:41:02;0.30;99.90
4279;DHT22;2153;47.744;10.580;2022-09-21T04:43:30;0.30;99.90
4279;DHT22;2153;47.744;10.580;2022-09-21T04:45:57;0.20;99.90
4279;DHT22;2153;47.744;10.580;2022-09-21T04:48:24;0.20;99.90
4279;DHT22;2153;47.744;10.580;2022-09-21T04:50:50;0.20;99.90
4279;DHT22;2153;47.744;10.580;2022-09-21T04:53:17;0.20;99.90
4279;DHT22;2153;47.744;10.580;2022-09-21T04:55:44;0.10;99.90
4279;DHT22;2153;47.744;10.580;2022-09-21T04:58:11;0.00;99.90
4279;DHT22;2153;47.744;10.580;2022-09-21T05:00:39;0.00;99.90
4279;DHT22;2153;47.744;10.580;2022-09-21T05:03:06;-0.10;99.90
4279;DHT22;2153;47.744;10.580;2022-09-21T05:05:32;-0.10;99.90
4279;DHT22;2153;47.744;10.580;2022-09-21T05:07:59;-0.10;99.90
4279;DHT22;2153;47.744;10.580;2022-09-21T05:10:27;-0.20;99.90
4279;DHT22;2153;47.744;10.580;2022-09-21T05:12:52;-0.20;99.90
4279;DHT22;2153;47.744;10.580;2022-09-21T05:15:19;-0.10;99.90
4279;DHT22;2153;47.744;10.580;2022-09-21T05:17:48;-0.10;99.90
4279;DHT22;2153;47.744;10.580;2022-09-21T05:20:14;-0.10;99.90
4279;DHT22;2153;47.744;10.580;2022-09-21T05:22:41;-0.10;99.90
4279;DHT22;2153;47.744;10.580;2022-09-21T05:25:08;-0.10;99.90
4279;DHT22;2153;47.744;10.580;2022-09-21T05:27:35;0.00;99.90
4279;DHT22;2153;47.744;10.580;2022-09-21T05:30:03;0.00;99.90
4279;DHT22;2153;47.744;10.580;2022-09-21T05:32:40;0.00;99.90
4279;DHT22;2153;47.744;10.580;2022-09-21T05:35:18;0.10;99.90
4279;DHT22;2153;47.744;10.580;2022-09-21T05:37:54;0.30;99.90
4279;DHT22;2153;47.744;10.580;2022-09-21T05:40:23;0.60;99.90
4279;DHT22;2153;47.744;10.580;2022-09-21T05:42:50;0.80;99.90
4279;DHT22;2153;47.744;10.580;2022-09-21T05:45:18;1.10;99.90
4279;DHT22;2153;47.744;10.580;2022-09-21T05:47:54;1.50;99.90
4279;DHT22;2153;47.744;10.580;2022-09-21T05:50:43;1.80;99.90
4279;DHT22;2153;47.744;10.580;2022-09-21T05:53:36;1.90;99.90
4279;DHT22;2153;47.744;10.580;2022-09-21T05:56:11;2.30;99.90
4279;DHT22;2153;47.744;10.580;2022-09-21T05:58:49;2.70;99.90
4279;DHT22;2153;47.744;10.580;2022-09-21T06:01:30;2.90;99.90
4279;DHT22;2153;47.744;10.580;2022-09-21T06:04:01;3.20;99.90
4279;DHT22;2153;47.744;10.580;2022-09-21T06:06:29;3.60;99.90
4279;DHT22;2153;47.744;10.580;2022-09-21T06:08:56;3.90;99.90
4279;DHT22;2153;47.744;10.580;2022-09-21T06:11:23;4.10;99.90
4279;DHT22;2153;47.744;10.580;2022-09-21T06:13:50;4.40;99.90
4279;DHT22;2153;47.744;10.580;2022-09-21T06:16:16;4.70;99.90
4279;DHT22;2153;47.744;10.580;2022-09-21T06:18:43;4.70;99.90
4279;DHT22;2153;47.744;10.580;2022-09-21T06:21:10;4.60;99.90
4279;DHT22;2153;47.744;10.580;2022-09-21T06:23:38;5.30;99.90
4279;DHT22;2153;47.744;10.580;2022-09-21T06:26:04;5.50;99.90
4279;DHT22;2153;47.744;10.580;2022-09-21T06:28:31;5.90;99.90
4279;DHT22;2153;47.744;10.580;2022-09-21T06:30:58;6.40;99.90
4279;DHT22;2153;47.744;10.580;2022-09-21T06:33:24;6.60;99.90
4279;DHT22;2153;47.744;10.580;2022-09-21T06:35:52;7.60;99.90
4279;DHT22;2153;47.744;10.580;2022-09-21T06:38:20;8.00;99.90
4279;DHT22;2153;47.744;10.580;2022-09-21T06:40:48;7.40;99.90
4279;DHT22;2153;47.744;10.580;2022-09-21T06:43:15;6.70;99.90
4279;DHT22;2153;47.744;10.580;2022-09-21T06:45:42;6.40;99.90
4279;DHT22;2153;47.744;10.580;2022-09-21T06:48:09;7.30;99.90
4279;DHT22;2153;47.744;10.580;2022-09-21T06:50:35;7.20;99.90
4279;DHT22;2153;47.744;10.580;2022-09-21T06:53:02;7.20;99.90
4279;DHT22;2153;47.744;10.580;2022-09-21T06:55:30;7.10;99.90
4279;DHT22;2153;47.744;10.580;2022-09-21T06:58:02;7.20;99.90
4279;DHT22;2153;47.744;10.580;2022-09-21T07:00:30;7.30;99.90
4279;DHT22;2153;47.744;10.580;2022-09-21T07:02:57;7.60;99.90
4279;DHT22;2153;47.744;10.580;2022-09-21T07:05:24;8.20;99.90
4279;DHT22;2153;47.744;10.580;2022-09-21T07:07:55;8.40;99.90
4279;DHT22;2153;47.744;10.580;2022-09-21T07:10:22;8.50;99.90
4279;DHT22;2153;47.744;10.580;2022-09-21T07:12:49;8.90;99.90
4279;DHT22;2153;47.744;10.580;2022-09-21T07:15:18;8.90;99.90
4279;DHT22;2153;47.744;10.580;2022-09-21T07:17:46;9.80;99.90
4279;DHT22;2153;47.744;10.580;2022-09-21T07:20:13;10.00;99.90
4279;DHT22;2153;47.744;10.580;2022-09-21T07:22:39;10.10;99.90
4279;DHT22;2153;47.744;10.580;2022-09-21T07:25:06;10.70;99.90
4279;DHT22;2153;47.744;10.580;2022-09-21T07:27:34;10.90;99.90
4279;DHT22;2153;47.744;10.580;2022-09-21T07:30:01;10.90;99.90
4279;DHT22;2153;47.744;10.580;2022-09-21T07:32:29;11.00;99.90
4279;DHT22;2153;47.744;10.580;2022-09-21T07:34:56;11.30;99.90
4279;DHT22;2153;47.744;10.580;2022-09-21T07:37:23;10.90;99.90
4279;DHT22;2153;47.744;10.580;2022-09-21T07:39:51;11.20;99.90
4279;DHT22;2153;47.744;10.580;2022-09-21T07:42:17;10.60;99.90
4279;DHT22;2153;47.744;10.580;2022-09-21T07:44:45;10.50;99.90
4279;DHT22;2153;47.744;10.580;2022-09-21T07:47:13;10.70;99.90
4279;DHT22;2153;47.744;10.580;2022-09-21T07:49:41;10.60;99.90
4279;DHT22;2153;47.744;10.580;2022-09-21T07:52:08;10.70;99.90
4279;DHT22;2153;47.744;10.580;2022-09-21T07:54:35;10.70;99.90
4279;DHT22;2153;47.744;10.580;2022-09-21T07:57:01;11.00;99.90
4279;DHT22;2153;47.744;10.580;2022-09-21T07:59:46;11.30;99.90
4279;DHT22;2153;47.744;10.580;2022-09-21T08:02:12;11.30;99.90
4279;DHT22;2153;47.744;10.580;2022-09-21T08:04:40;11.20;99.90
4279;DHT22;2153;47.744;10.580;2022-09-21T08:07:07;11.40;99.90
4279;DHT22;2153;47.744;10.580;2022-09-21T08:09:34;11.50;99.90
4279;DHT22;2153;47.744;10.580;2022-09-21T08:12:01;11.90;99.90
4279;DHT22;2153;47.744;10.580;2022-09-21T08:14:27;11.80;99.90
4279;DHT22;2153;47.744;10.580;2022-09-21T08:16:54;12.10;99.90
4279;DHT22;2153;47.744;10.580;2022-09-21T08:19:21;12.10;99.90
4279;DHT22;2153;47.744;10.580;2022-09-21T08:21:51;12.90;99.90
4279;DHT22;2153;47.744;10.580;2022-09-21T08:24:18;12.80;99.90
4279;DHT22;2153;47.744;10.580;2022-09-21T08:26:45;12.40;99.90
4279;DHT22;2153;47.744;10.580;2022-09-21T08:29:12;12.60;99.90
4279;DHT22;2153;47.744;10.580;2022-09-21T08:31:40;12.30;99.90
4279;DHT22;2153;47.744;10.580;2022-09-21T08:34:07;12.30;99.90
4279;DHT22;2153;47.744;10.580;2022-09-21T08:36:34;12.90;99.90
4279;DHT22;2153;47.744;10.580;2022-09-21T08:39:05;13.00;99.90
4279;DHT22;2153;47.744;10.580;2022-09-21T08:41:46;12.60;99.90
4279;DHT22;2153;47.744;10.580;2022-09-21T08:44:19;12.20;99.90
4279;DHT22;2153;47.744;10.580;2022-09-21T08:46:51;12.30;99.90
4279;DHT22;2153;47.744;10.580;2022-09-21T08:49:23;13.50;99.90
4279;DHT22;2153;47.744;10.580;2022-09-21T08:51:53;13.30;99.90
4279;DHT22;2153;47.744;10.580;2022-09-21T08:54:27;13.80;99.90
4279;DHT22;2153;47.744;10.580;2022-09-21T08:56:56;14.00;99.90
4279;DHT22;2153;47.744;10.580;2022-09-21T08:59:23;13.50;99.90
4279;DHT22;2153;47.744;10.580;2022-09-21T09:01:55;12.70;99.90
4279;DHT22;2153;47.744;10.580;2022-09-21T09:04:37;13.30;99.90
4279;DHT22;2153;47.744;10.580;2022-09-21T09:07:14;13.50;99.90
4279;DHT22;2153;47.744;10.580;2022-09-21T09:10:01;14.40;99.90
4279;DHT22;2153;47.744;10.580;2022-09-21T09:12:41;15.10;99.90
4279;DHT22;2153;47.744;10.580;2022-09-21T09:15:32;13.90;99.90
4279;DHT22;2153;47.744;10.580;2022-09-21T09:18:07;13.10;99.90
4279;DHT22;2153;47.744;10.580;2022-09-21T09:20:38;12.70;99.90
4279;DHT22;2153;47.744;10.580;2022-09-21T09:23:10;13.10;99.90
4279;DHT22;2153;47.744;10.580;2022-09-21T09:25:41;13.40;99.90
4279;DHT22;2153;47.744;10.580;2022-09-21T09:28:21;13.10;99.90
4279;DHT22;2153;47.744;10.580;2022-09-21T09:30:56;13.00;99.90
4279;DHT22;2153;47.744;10.580;2022-09-21T09:33:28;12.60;99.90
4279;DHT22;2153;47.744;10.580;2022-09-21T09:36:00;12.60;99.90
4279;DHT22;2153;47.744;10.580;2022-09-21T09:38:31;13.10;99.90
4279;DHT22;2153;47.744;10.580;2022-09-21T09:41:14;13.10;99.90
4279;DHT22;2153;47.744;10.580;2022-09-21T09:43:58;13.90;99.90
4279;DHT22;2153;47.744;10.580;2022-09-21T09:46:31;13.70;99.90
4279;DHT22;2153;47.744;10.580;2022-09-21T09:49:12;13.60;99.90
4279;DHT22;2153;47.744;10.580;2022-09-21T09:51:40;13.70;99.90
4279;DHT22;2153;47.744;10.580;2022-09-21T09:54:13;14.00;99.90
4279;DHT22;2153;47.744;10.580;2022-09-21T09:56:41;14.30;99.90
4279;DHT22;2153;47.744;10.580;2022-09-21T09:59:13;13.90;99.90
4279;DHT22;2153;47.744;10.580;2022-09-21T10:01:45;13.70;99.90
4279;DHT22;2153;47.744;10.580;2022-09-21T10:04:13;13.90;99.90
4279;DHT22;2153;47.744;10.580;2022-09-21T10:06:40;13.50;99.90
4279;DHT22;2153;47.744;10.580;2022-09-21T10:09:18;13.10;99.90
4279;DHT22;2153;47.744;10.580;2022-09-21T10:11:46;13.30;99.90
4279;DHT22;2153;47.744;10.580;2022-09-21T10:14:17;13.40;99.90
4279;DHT22;2153;47.744;10.580;2022-09-21T10:16:45;13.50;99.90
4279;DHT22;2153;47.744;10.580;2022-09-21T10:19:17;13.70;99.90
4279;DHT22;2153;47.744;10.580;2022-09-21T10:21:46;13.70;97.60
4279;DHT22;2153;47.744;10.580;2022-09-21T10:24:18;13.60;95.40
4279;DHT22;2153;47.744;10.580;2022-09-21T10:26:49;13.60;91.30
4279;DHT22;2153;47.744;10.580;2022-09-21T10:29:28;13.90;86.90
4279;DHT22;2153;47.744;10.580;2022-09-21T10:31:56;13.40;97.50
4279;DHT22;2153;47.744;10.580;2022-09-21T10:34:24;13.70;99.40
4279;DHT22;2153;47.744;10.580;2022-09-21T10:36:53;14.20;99.90
4279;DHT22;2153;47.744;10.580;2022-09-21T10:39:26;14.60;96.00
4279;DHT22;2153;47.744;10.580;2022-09-21T10:41:58;14.70;98.30
4279;DHT22;2153;47.744;10.580;2022-09-21T10:44:27;15.20;99.90
4279;DHT22;2153;47.744;10.580;2022-09-21T10:46:54;15.10;99.90
4279;DHT22;2153;47.744;10.580;2022-09-21T10:49:23;15.10;99.90
4279;DHT22;2153;47.744;10.580;2022-09-21T10:51:53;15.00;99.90
4279;DHT22;2153;47.744;10.580;2022-09-21T10:54:23;14.60;99.90
4279;DHT22;2153;47.744;10.580;2022-09-21T10:56:57;14.20;99.90
4279;DHT22;2153;47.744;10.580;2022-09-21T10:59:27;14.00;99.90
4279;DHT22;2153;47.744;10.580;2022-09-21T11:01:56;14.70;99.90
4279;DHT22;2153;47.744;10.580;2022-09-21T11:04:32;15.50;99.90
4279;DHT22;2153;47.744;10.580;2022-09-21T11:07:08;15.60;92.90
4279;DHT22;2153;47.744;10.580;2022-09-21T11:09:38;15.50;95.40
4279;DHT22;2153;47.744;10.580;2022-09-21T11:12:20;14.40;75.20
4279;DHT22;2153;47.744;10.580;2022-09-21T11:14:55;14.70;94.50
4279;DHT22;2153;47.744;10.580;2022-09-21T11:17:33;14.60;97.20
4279;DHT22;2153;47.744;10.580;2022-09-21T11:20:08;14.80;97.20
4279;DHT22;2153;47.744;10.580;2022-09-21T11:22:44;14.90;91.30
4279;DHT22;2153;47.744;10.580;2022-09-21T11:25:25;15.00;99.90
4279;DHT22;2153;47.744;10.580;2022-09-21T11:27:59;14.40;98.40
4279;DHT22;2153;47.744;10.580;2022-09-21T11:30:36;14.00;99.90
4279;DHT22;2153;47.744;10.580;2022-09-21T11:33:20;14.50;99.90
4279;DHT22;2153;47.744;10.580;2022-09-21T11:35:56;14.60;91.80
4279;DHT22;2153;47.744;10.580;2022-09-21T11:38:38;14.60;94.00
4279;DHT22;2153;47.744;10.580;2022-09-21T11:41:19;14.90;98.30
4279;DHT22;2153;47.744;10.580;2022-09-21T11:44:05;14.90;99.90
4279;DHT22;2153;47.744;10.580;2022-09-21T11:46:41;14.70;99.90
4279;DHT22;2153;47.744;10.580;2022-09-21T11:49:30;15.10;99.90
4279;DHT22;2153;47.744;10.580;2022-09-21T11:52:15;15.20;90.60
4279;DHT22;2153;47.744;10.580;2022-09-21T11:54:58;15.10;88.60
4279;DHT22;2153;47.744;10.580;2022-09-21T11:57:29;14.70;81.30
4279;DHT22;2153;47.744;10.580;2022-09-21T12:00:12;14.80;99.90
4279;DHT22;2153;47.744;10.580;2022-09-21T12:03:08;14.80;93.60
4279;DHT22;2153;47.744;10.580;2022-09-21T12:05:45;14.60;99.90
4279;DHT22;2153;47.744;10.580;2022-09-21T12:08:35;14.10;99.90
4279;DHT22;2153;47.744;10.580;2022-09-21T12:11:09;14.10;99.90
4279;DHT22;2153;47.744;10.580;2022-09-21T12:13:42;14.10;99.90
4279;DHT22;2153;47.744;10.580;2022-09-21T12:16:20;14.40;97.80
4279;DHT22;2153;47.744;10.580;2022-09-21T12:18:54;14.40;92.50
4279;DHT22;2153;47.744;10.580;2022-09-21T12:21:27;14.60;99.70
4279;DHT22;2153;47.744;10.580;2022-09-21T12:23:56;15.30;99.90
4279;DHT22;2153;47.744;10.580;2022-09-21T12:26:26;15.60;96.50
4279;DHT22;2153;47.744;10.580;2022-09-21T12:28:56;15.70;90.30
4279;DHT22;2153;47.744;10.580;2022-09-21T12:31:30;15.40;82.90
4279;DHT22;2153;47.744;10.580;2022-09-21T12:34:03;15.50;99.90
4279;DHT22;2153;47.744;10.580;2022-09-21T12:36:35;15.70;99.90
4279;DHT22;2153;47.744;10.580;2022-09-21T12:39:09;16.30;98.00
4279;DHT22;2153;47.744;10.580;2022-09-21T12:41:38;15.10;81.20
4279;DHT22;2153;47.744;10.580;2022-09-21T12:44:16;15.40;95.60
4279;DHT22;2153;47.744;10.580;2022-09-21T12:46:52;15.30;95.80
4279;DHT22;2153;47.744;10.580;2022-09-21T12:49:25;15.50;93.60
4279;DHT22;2153;47.744;10.580;2022-09-21T12:51:58;15.40;96.90
4279;DHT22;2153;47.744;10.580;2022-09-21T12:54:31;15.50;96.50
4279;DHT22;2153;47.744;10.580;2022-09-21T12:57:06;15.20;98.90
4279;DHT22;2153;47.744;10.580;2022-09-21T12:59:39;15.00;98.30
4279;DHT22;2153;47.744;10.580;2022-09-21T13:02:18;15.10;99.70
4279;DHT22;2153;47.744;10.580;2022-09-21T13:04:54;15.00;99.90
4279;DHT22;2153;47.744;10.580;2022-09-21T13:07:59;15.40;99.90
4279;DHT22;2153;47.744;10.580;2022-09-21T13:10:44;15.10;90.00
4279;DHT22;2153;47.744;10.580;2022-09-21T13:13:21;14.80;94.20
4279;DHT22;2153;47.744;10.580;2022-09-21T13:15:49;14.40;99.90
4279;DHT22;2153;47.744;10.580;2022-09-21T13:18:22;14.30;99.90
4279;DHT22;2153;47.744;10.580;2022-09-21T13:20:50;14.40;99.90
4279;DHT22;2153;47.744;10.580;2022-09-21T13:23:21;15.00;99.90
4279;DHT22;2153;47.744;10.580;2022-09-21T13:25:58;14.90;99.90
4279;DHT22;2153;47.744;10.580;2022-09-21T13:28:40;14.80;99.90
4279;DHT22;2153;47.744;10.580;2022-09-21T13:31:29;15.20;99.90
4279;DHT22;2153;47.744;10.580;2022-09-21T13:34:22;15.60;98.20
4279;DHT22;2153;47.744;10.580;2022-09-21T13:40:29;15.90;99.40
4279;DHT22;2153;47.744;10.580;2022-09-21T13:43:16;16.20;98.50
4279;DHT22;2153;47.744;10.580;2022-09-21T13:45:58;15.90;96.20
4279;DHT22;2153;47.744;10.580;2022-09-21T13:48:26;15.60;90.00
4279;DHT22;2153;47.744;10.580;2022-09-21T13:50:58;15.80;99.90
4279;DHT22;2153;47.744;10.580;2022-09-21T13:53:30;15.70;95.00
4279;DHT22;2153;47.744;10.580;2022-09-21T13:56:04;15.20;99.90
4279;DHT22;2153;47.744;10.580;2022-09-21T13:58:34;15.10;99.90
4279;DHT22;2153;47.744;10.580;2022-09-21T14:01:03;15.30;99.90
4279;DHT22;2153;47.744;10.580;2022-09-21T14:03:34;15.50;99.80
4279;DHT22;2153;47.744;10.580;2022-09-21T14:06:06;15.10;99.90
4279;DHT22;2153;47.744;10.580;2022-09-21T14:08:36;15.30;99.90
4279;DHT22;2153;47.744;10.580;2022-09-21T14:11:08;15.10;94.40
4279;DHT22;2153;47.744;10.580;2022-09-21T14:13:44;14.40;96.00
4279;DHT22;2153;47.744;10.580;2022-09-21T14:22:37;14.40;99.90
4279;DHT22;2153;47.744;10.580;2022-09-21T14:25:37;14.20;99.90
4279;DHT22;2153;47.744;10.580;2022-09-21T14:28:14;13.90;98.20
4279;DHT22;2153;47.744;10.580;2022-09-21T14:30:48;14.40;99.90
4279;DHT22;2153;47.744;10.580;2022-09-21T14:33:26;14.90;99.90
4279;DHT22;2153;47.744;10.580;2022-09-21T14:35:55;14.80;99.90
4279;DHT22;2153;47.744;10.580;2022-09-21T14:38:27;15.10;99.90
4279;DHT22;2153;47.744;10.580;2022-09-21T14:40:58;14.50;99.90
4279;DHT22;2153;47.744;10.580;2022-09-21T14:43:29;14.10;99.90
4279;DHT22;2153;47.744;10.580;2022-09-21T14:46:29;13.90;99.90
4279;DHT22;2153;47.744;10.580;2022-09-21T14:49:06;13.50;99.90
4279;DHT22;2153;47.744;10.580;2022-09-21T14:51:43;13.80;99.90
4279;DHT22;2153;47.744;10.580;2022-09-21T14:54:36;14.10;99.90
4279;DHT22;2153;47.744;10.580;2022-09-21T14:57:18;14.20;99.90
4279;DHT22;2153;47.744;10.580;2022-09-21T14:59:59;14.30;99.90
4279;DHT22;2153;47.744;10.580;2022-09-21T15:02:30;14.30;99.90
4279;DHT22;2153;47.744;10.580;2022-09-21T15:05:16;14.00;99.90
4279;DHT22;2153;47.744;10.580;2022-09-21T15:07:51;13.80;99.90
4279;DHT22;2153;47.744;10.580;2022-09-21T15:10:51;13.90;99.90
4279;DHT22;2153;47.744;10.580;2022-09-21T15:13:39;13.90;99.90
4279;DHT22;2153;47.744;10.580;2022-09-21T15:16:16;13.80;99.90
4279;DHT22;2153;47.744;10.580;2022-09-21T15:18:45;13.60;99.90
4279;DHT22;2153;47.744;10.580;2022-09-21T15:21:22;13.50;99.90
4279;DHT22;2153;47.744;10.580;2022-09-21T15:23:50;13.40;99.90
4279;DHT22;2153;47.744;10.580;2022-09-21T15:26:21;13.20;99.90
4279;DHT22;2153;47.744;10.580;2022-09-21T15:28:53;13.20;99.90
4279;DHT22;2153;47.744;10.580;2022-09-21T15:31:21;13.00;99.90
4279;DHT22;2153;47.744;10.580;2022-09-21T15:33:48;13.00;99.90
4279;DHT22;2153;47.744;10.580;2022-09-21T15:36:21;13.10;99.90
4279;DHT22;2153;47.744;10.580;2022-09-21T15:38:49;12.90;99.90
4279;DHT22;2153;47.744;10.580;2022-09-21T15:41:40;12.70;99.90
4279;DHT22;2153;47.744;10.580;2022-09-21T15:44:13;12.70;99.90
4279;DHT22;2153;47.744;10.580;2022-09-21T15:46:42;12.80;99.90
4279;DHT22;2153;47.744;10.580;2022-09-21T15:49:11;12.80;99.90
4279;DHT22;2153;47.744;10.580;2022-09-21T15:51:41;12.70;99.90
4279;DHT22;2153;47.744;10.580;2022-09-21T15:54:22;12.60;99.90
4279;DHT22;2153;47.744;10.580;2022-09-21T15:56:52;12.50;99.90
4279;DHT22;2153;47.744;10.580;2022-09-21T15:59:20;12.40;99.90
4279;DHT22;2153;47.744;10.580;2022-09-21T16:01:49;12.40;99.90
4279;DHT22;2153;47.744;10.580;2022-09-21T16:04:18;12.20;99.90
4279;DHT22;2153;47.744;10.580;2022-09-21T16:06:55;12.20;99.90
4279;DHT22;2153;47.744;10.580;2022-09-21T16:09:38;12.10;99.90
4279;DHT22;2153;47.744;10.580;2022-09-21T16:12:38;12.00;99.90
4279;DHT22;2153;47.744;10.580;2022-09-21T16:15:13;12.00;99.90
4279;DHT22;2153;47.744;10.580;2022-09-21T16:17:52;11.90;99.90
4279;DHT22;2153;47.744;10.580;2022-09-21T16:20:20;11.80;99.90
4279;DHT22;2153;47.744;10.580;2022-09-21T16:22:49;11.70;99.90
4279;DHT22;2153;47.744;10.580;2022-09-21T16:25:27;11.70;99.90
4279;DHT22;2153;47.744;10.580;2022-09-21T16:28:00;11.60;99.90
4279;DHT22;2153;47.744;10.580;2022-09-21T16:30:39;11.60;99.90
4279;DHT22;2153;47.744;10.580;2022-09-21T16:33:37;11.50;99.90
4279;DHT22;2153;47.744;10.580;2022-09-21T16:39:11;11.40;99.90
4279;DHT22;2153;47.744;10.580;2022-09-21T16:41:42;11.30;99.90